Date,TemperatureHighF,TemperatureAvgF,TemperatureLowF,DewpointHighF,DewpointAvgF,DewpointLowF,HumidityHigh,HumidityAvg,HumidityLow,PressureMaxIn,PressureMinIn,WindSpeedMaxMPH,WindSpeedAvgMPH,GustSpeedMaxMPH,PrecipitationSumIn
2013-1-1,55,48,43,44,40,37,84,77,59,30.20,30.09,5,1,9,0.00
2013-1-2,51,50,47,43,41,38,80,71,64,30.29,30.09,7,3,11,0.02
2013-1-3,57,52,48,44,40,36,72,64,56,30.53,30.29,5,2,8,0.00
2013-1-4,53,49,44,41,38,36,78,66,60,30.50,30.29,8,4,10,0.00
2013-1-5,50,47,44,43,41,37,86,79,74,30.32,30.12,10,4,13,0.00
2013-1-6,58,52,46,46,43,37,91,74,55,30.23,30.12,5,1,8,0.00
2013-1-7,52,51,48,46,40,35,91,68,57,30.26,30.12,3,1,4,0.00
2013-1-8,53,50,47,45,42,35,79,75,55,30.29,30.23,4,1,7,0.00
2013-1-9,53,50,46,41,40,37,77,69,59,30.23,30.15,5,1,7,0.00
2013-1-10,50,48,47,44,43,38,89,84,69,30.15,29.85,7,1,12,0.11
2013-1-11,53,47,41,46,41,37,92,81,66,29.91,29.73,6,3,10,0.07
2013-1-12,53,46,40,43,40,35,93,78,63,30.09,29.88,5,2,10,0.00
2013-1-13,51,48,45,48,44,41,93,85,77,30.06,29.79,10,4,16,1.88
2013-1-14,50,48,45,48,44,38,94,84,74,29.94,29.73,7,2,13,0.26
2013-1-15,49,45,42,41,37,33,84,74,58,29.97,29.58,12,2,18,0.16
2013-1-16,45,40,36,41,35,32,91,84,72,29.61,29.47,10,3,22,1.18
2013-1-17,45,40,34,41,35,31,91,84,70,29.50,29.32,11,2,16,0.26
2013-1-18,41,37,34,34,31,29,96,81,67,29.67,29.38,11,5,18,0.05
2013-1-19,52,44,35,51,37,25,96,77,60,29.67,29.50,15,6,28,0.28
2013-1-20,56,53,50,53,50,44,96,88,76,29.58,29.50,14,7,26,1.03
2013-1-21,52,48,43,48,42,36,92,80,65,29.61,29.44,8,2,13,0.29
2013-1-22,48,46,42,44,38,32,89,75,62,29.82,29.55,7,2,16,0.08
2013-1-23,47,44,42,41,38,35,91,81,73,29.85,29.58,10,4,15,0.57
2013-1-24,49,44,38,43,38,35,88,82,72,29.58,29.41,7,2,15,0.09
2013-1-25,50,42,36,38,34,29,91,75,59,29.67,29.44,7,4,12,0.00
2013-1-26,47,39,34,33,30,27,80,69,56,29.88,29.61,6,2,11,0.00
2013-1-27,50,42,34,40,34,27,85,74,60,30.03,29.85,6,1,15,0.00
2013-1-28,47,44,40,42,40,28,89,84,61,30.03,29.82,10,5,19,0.52
2013-1-29,54,48,39,45,40,34,88,77,60,30.26,30.03,4,1,9,0.00
2013-1-30,57,52,44,49,44,39,92,76,60,30.26,30.17,4,2,8,0.00
2013-1-31,63,55,51,50,47,42,91,73,60,30.23,30.17,6,2,14,0.00
2013-2-1,60,54,47,49,47,42,87,77,64,30.20,29.76,8,2,15,0.00
2013-2-2,57,50,45,50,44,36,91,80,69,29.79,29.32,10,5,15,0.05
2013-2-3,48,43,39,39,35,27,85,74,62,29.97,29.38,9,3,16,0.22
2013-2-4,51,43,35,34,27,10,75,57,21,30.17,29.97,10,2,15,0.00
2013-2-5,50,48,44,47,44,29,91,84,59,30.15,29.82,9,4,17,0.00
2013-2-6,51,47,42,46,36,31,90,68,50,29.82,29.53,9,3,18,0.20
2013-2-7,47,41,38,39,35,30,89,78,61,29.58,29.47,7,2,11,0.43
2013-2-8,47,40,35,31,28,26,79,64,47,29.76,29.58,10,4,15,0.00
2013-2-9,44,37,32,30,24,20,83,62,42,29.88,29.73,8,3,14,0.00
2013-2-10,43,36,29,26,18,6,70,50,22,29.97,29.85,8,2,12,0.00
2013-2-11,49,43,37,45,34,18,94,74,44,29.97,29.53,15,8,30,2.04
2013-2-12,51,45,41,43,39,37,90,82,66,29.73,29.55,6,1,12,0.22
2013-2-13,50,43,37,37,34,30,84,69,56,29.85,29.70,5,2,8,0.00
2013-2-14,52,45,37,36,34,31,80,65,49,30.00,29.82,6,2,11,0.00
2013-2-15,53,46,39,38,35,31,79,66,53,30.03,29.94,4,1,6,0.00
2013-2-16,54,48,42,39,37,34,79,66,48,30.09,30.00,4,1,6,0.00
2013-2-17,51,45,40,40,37,34,83,74,60,30.09,29.97,6,2,10,0.39
2013-2-18,48,44,38,41,37,32,83,76,69,30.03,29.94,4,1,6,0.00
2013-2-19,51,44,36,36,32,27,78,62,41,30.03,29.94,5,1,8,0.00
2013-2-20,52,45,38,37,33,29,73,64,51,30.03,29.91,4,1,7,0.00
2013-2-21,55,48,41,41,37,33,84,66,47,29.94,29.70,4,1,8,0.02
2013-2-22,51,48,46,47,43,40,93,83,70,29.70,29.47,11,4,19,0.13
2013-2-23,51,47,44,50,43,33,96,85,61,29.67,29.44,20,7,31,2.38
2013-2-24,44,41,36,39,33,28,85,73,55,29.94,29.64,9,3,14,0.07
2013-2-25,40,38,35,35,33,30,93,85,69,30.06,29.91,8,2,12,1.18
2013-2-26,50,43,38,39,36,33,85,76,64,30.15,30.00,6,0,8,0.00
2013-2-27,52,46,38,35,32,29,77,59,45,30.23,30.12,7,2,11,0.00
2013-2-28,57,50,44,40,37,32,69,60,48,30.23,30.15,4,2,10,0.00
2013-3-1,55,52,45,39,36,33,71,56,48,30.15,29.88,4,1,5,0.00
2013-3-2,57,52,48,43,38,34,82,58,44,30.03,29.82,7,2,10,0.00
2013-3-3,59,51,45,46,43,40,87,76,56,30.09,30.00,3,1,5,0.00
2013-3-4,57,50,43,44,41,38,87,71,56,30.20,30.06,7,2,11,0.00
2013-3-5,57,53,45,39,34,19,76,49,24,30.20,29.94,8,3,15,0.00
2013-3-6,59,55,51,52,42,25,95,67,28,29.97,29.70,16,9,26,2.27
2013-3-7,58,54,53,54,52,49,96,90,82,29.85,29.73,7,2,13,0.14
2013-3-8,57,54,51,51,50,48,95,88,72,29.82,29.67,8,4,20,0.34
2013-3-9,62,56,51,52,49,44,98,79,56,29.85,29.70,10,3,24,0.05
2013-3-10,58,53,49,51,47,43,95,82,66,29.76,29.55,14,4,21,0.54
2013-3-11,56,52,45,50,47,42,97,85,68,29.67,29.58,14,4,15,0.22
2013-3-12,53,48,43,50,44,40,94,87,78,29.64,29.53,8,2,16,0.66
2013-3-13,51,47,43,46,42,40,91,86,76,29.58,29.29,6,2,9,0.45
2013-3-14,52,45,39,42,35,32,91,68,57,29.35,29.14,9,4,13,0.03
2013-3-15,49,42,37,36,30,25,83,64,40,29.88,29.32,7,2,11,0.00
2013-3-16,48,41,35,34,31,26,83,68,54,30.15,29.88,6,2,16,0.00
2013-3-17,49,46,41,42,36,30,81,68,61,30.12,29.76,18,8,28,0.13
2013-3-18,54,51,47,52,46,40,93,83,69,29.76,29.53,20,10,30,0.90
2013-3-19,56,51,47,45,42,37,83,70,61,29.85,29.70,7,3,13,0.00
2013-3-20,54,50,46,47,40,33,90,70,53,29.85,29.67,11,3,15,0.27
2013-3-21,57,50,43,47,38,34,92,67,44,30.00,29.67,12,4,60,0.00
2013-3-22,62,54,45,44,40,30,83,61,33,30.00,29.91,4,2,8,0.00
2013-3-23,60,54,47,49,44,34,85,67,48,29.97,29.82,6,2,12,0.00
2013-3-24,68,61,53,46,40,29,66,48,24,29.82,29.47,14,5,19,0.00
2013-3-25,57,50,43,52,46,38,93,86,64,29.58,29.35,10,2,17,1.24
2013-3-26,52,49,43,47,45,38,92,86,75,29.64,29.55,5,1,11,0.50
2013-3-27,59,53,47,49,46,40,91,77,56,29.85,29.61,7,2,14,0.00
2013-3-28,56,53,49,52,50,44,93,88,80,29.91,29.85,9,4,20,0.09
2013-3-29,60,58,53,54,50,47,92,77,70,29.91,29.79,6,3,13,0.00
2013-3-30,58,55,51,53,51,47,97,87,70,29.82,29.50,14,7,22,0.13
2013-3-31,56,51,48,51,47,43,96,87,77,29.73,29.50,10,4,17,1.14
2013-4-1,57,53,49,49,44,40,92,74,59,29.76,29.55,14,6,22,0.28
2013-4-2,54,51,48,53,49,45,98,93,87,29.61,29.47,12,3,24,1.27
2013-4-3,60,53,47,47,45,42,93,74,55,29.82,29.58,4,1,8,0.00
2013-4-4,62,57,48,48,41,35,84,56,37,29.82,29.55,14,5,24,0.00
2013-4-5,60,53,50,51,47,41,92,83,50,29.85,29.47,16,4,22,0.18
2013-4-6,64,57,50,52,48,44,87,73,58,29.85,29.76,7,2,13,0.00
2013-4-7,66,58,48,48,42,34,73,56,47,29.82,29.67,9,4,12,0.00
2013-4-8,61,54,44,45,40,34,79,62,41,29.91,29.79,6,2,12,0.00
2013-4-9,61,56,51,49,45,40,81,66,53,29.97,29.88,7,3,14,0.00
2013-4-10,62,57,52,51,49,40,84,74,55,30.06,29.94,8,4,15,0.00
2013-4-11,65,60,52,47,44,39,74,57,45,30.12,30.03,6,3,12,0.00
2013-4-12,64,58,54,52,50,45,80,74,64,30.09,29.97,7,4,14,0.00
2013-4-13,70,62,54,52,48,44,83,62,41,30.29,30.06,6,2,11,0.00
2013-4-14,72,62,54,55,46,41,69,56,45,30.38,30.26,5,2,9,0.00
2013-4-15,73,66,60,50,46,43,60,49,36,30.32,30.15,5,1,10,0.00
2013-4-16,74,67,59,54,48,42,65,52,34,30.23,30.15,4,1,11,0.00
2013-4-17,74,67,60,55,45,23,75,49,18,30.26,30.17,6,2,10,0.00
2013-4-18,76,69,60,50,46,33,61,45,22,30.23,30.09,4,1,8,0.00
2013-4-19,75,68,61,61,52,41,70,59,45,30.12,29.97,8,2,11,0.00
2013-4-20,61,56,51,55,48,44,91,73,56,30.09,30.00,4,1,8,0.00
2013-4-21,61,56,50,46,41,35,82,57,42,30.09,29.97,6,3,9,0.00
2013-4-22,53,50,48,46,43,40,84,76,62,30.06,29.91,8,3,15,0.39
2013-4-23,64,59,50,49,46,43,79,63,55,30.29,30.06,4,1,8,0.00
2013-4-24,75,69,62,51,48,44,56,47,39,30.35,30.29,4,2,10,0.00
2013-4-25,78,73,67,54,48,39,60,43,25,30.32,30.17,5,2,11,0.00
2013-4-26,69,64,60,55,50,44,76,60,42,30.17,30.00,12,4,19,0.05
2013-4-27,62,59,57,56,54,50,94,83,68,29.91,29.79,14,6,20,0.04
2013-4-28,77,72,58,56,52,44,91,50,37,30.03,29.88,9,3,13,0.00
2013-4-29,84,77,71,54,43,25,43,30,16,30.09,30.00,10,4,14,0.00
2013-4-30,84,77,70,56,46,25,47,35,16,30.12,30.03,9,3,13,0.00
2013-5-1,76,70,63,56,46,29,76,46,19,30.15,30.06,8,2,13,0.09
2013-5-2,76,66,61,61,55,50,83,69,47,30.12,29.97,9,2,13,0.16
2013-5-3,80,72,65,59,54,51,66,54,40,30.03,29.94,5,2,8,0.00
2013-5-4,81,73,64,62,56,49,68,56,45,30.06,29.97,4,1,6,0.00
2013-5-5,70,65,60,58,56,49,90,74,51,30.09,30.00,5,2,9,0.04
2013-5-6,67,60,57,61,56,54,93,89,77,30.03,29.91,9,2,14,1.47
2013-5-7,65,61,57,60,55,53,91,82,74,30.06,30.00,4,1,6,0.04
2013-5-8,72,65,57,58,53,49,84,67,54,30.03,29.94,4,1,7,0.00
2013-5-9,73,68,59,59,56,53,81,67,59,30.06,30.00,4,1,8,0.00
2013-5-10,69,65,62,60,57,53,84,76,61,30.03,29.97,7,2,12,0.00
2013-5-11,66,62,56,58,55,52,88,78,65,30.00,29.88,10,3,16,0.00
2013-5-12,69,62,55,56,54,51,89,74,59,29.97,29.88,6,2,11,0.00
2013-5-13,70,64,54,54,42,30,92,49,25,30.03,29.94,11,5,16,0.00
2013-5-14,73,67,59,53,47,31,72,50,24,30.06,29.94,8,2,13,0.00
2013-5-15,68,63,59,55,48,41,78,58,41,29.94,29.73,10,4,17,0.00
2013-5-16,72,65,59,57,55,52,87,70,54,29.76,29.58,16,5,24,0.70
2013-5-17,65,61,56,59,52,46,93,74,55,29.97,29.67,9,4,15,0.52
2013-5-18,77,72,62,55,50,46,65,47,37,30.03,29.88,8,3,16,0.00
2013-5-19,67,63,58,53,49,43,79,61,43,30.12,29.97,6,3,11,0.00
2013-5-20,68,63,58,51,46,35,79,55,31,30.17,30.12,4,2,8,0.00
2013-5-21,67,61,56,54,49,42,88,65,50,30.15,29.88,9,2,9,0.14
2013-5-22,75,64,58,59,54,50,93,73,49,29.88,29.44,6,2,11,0.83
2013-5-23,62,58,55,58,55,52,99,90,74,29.76,29.50,9,2,12,0.48
2013-5-24,62,57,51,55,47,42,93,69,59,29.94,29.73,9,5,18,0.00
2013-5-25,60,54,50,47,44,40,76,68,50,29.94,29.85,10,4,18,0.00
2013-5-26,63,57,51,49,45,42,85,66,53,30.06,29.88,7,3,12,0.02
2013-5-27,67,61,53,51,48,34,84,63,34,30.09,29.94,8,3,15,0.00
2013-5-28,72,66,55,52,48,40,79,53,36,29.97,29.73,5,1,9,0.00
2013-5-29,64,60,55,56,49,43,87,68,51,29.82,29.76,8,3,13,0.00
2013-5-30,60,54,51,51,48,45,89,78,60,29.82,29.76,10,4,16,0.27
2013-5-31,61,58,53,53,50,46,91,77,61,29.82,29.76,9,5,20,0.07
2013-6-1,64,58,54,54,51,48,91,79,66,29.88,29.76,6,2,14,0.72
2013-6-2,71,63,55,59,55,51,89,75,57,30.03,29.85,7,2,12,0.00
2013-6-3,70,63,57,58,54,50,87,72,64,30.03,29.94,6,1,10,0.00
2013-6-4,70,64,59,60,56,50,92,76,57,30.06,29.97,7,2,18,0.13
2013-6-5,73,67,60,61,57,52,92,71,55,30.12,30.03,6,1,11,0.02
2013-6-6,76,70,60,61,58,52,83,65,57,30.12,30.06,5,1,13,0.00
2013-6-7,79,73,65,60,54,52,69,52,41,30.09,30.03,7,2,10,0.00
2013-6-8,80,72,66,61,56,49,67,57,50,30.09,30.00,6,1,9,0.00
2013-6-9,74,70,63,63,54,43,73,58,41,30.03,29.91,8,3,13,0.00
2013-6-10,72,67,61,57,54,52,78,64,55,29.97,29.91,6,2,12,0.00
2013-6-11,75,68,60,58,56,53,82,64,53,30.03,29.94,6,3,12,0.00
2013-6-12,84,76,64,59,51,44,75,43,28,30.09,30.00,8,3,16,0.00
2013-6-13,86,79,69,53,47,40,47,33,21,30.09,30.03,6,2,9,0.00
2013-6-14,85,78,70,58,54,47,53,44,36,30.12,30.03,5,2,9,0.00
2013-6-15,84,77,70,64,59,51,62,54,48,30.15,30.09,5,2,11,0.00
2013-6-16,86,78,68,64,59,55,66,53,42,30.15,30.09,4,1,7,0.00
2013-6-17,91,83,72,68,62,54,59,50,40,30.12,30.06,4,1,7,0.00
2013-6-18,90,84,76,69,64,58,60,51,36,30.09,30.06,7,2,16,0.00
2013-6-19,94,85,74,66,61,55,62,45,30,30.12,30.06,4,1,9,0.00
2013-6-20,91,84,76,64,58,51,62,43,27,30.12,30.06,6,2,12,0.00
2013-6-21,86,80,72,65,61,55,75,54,36,30.12,30.06,7,2,13,0.00
2013-6-22,82,75,68,63,59,54,79,58,43,30.12,30.06,4,1,6,0.00
2013-6-23,83,74,66,65,62,57,84,66,47,30.12,30.00,6,2,12,0.00
2013-6-24,72,68,64,62,58,54,87,71,57,30.03,29.94,9,4,15,0.00
2013-6-25,80,70,59,58,53,42,87,56,27,30.09,29.97,8,3,11,0.00
2013-6-26,76,68,61,60,55,47,75,62,37,30.12,30.06,12,3,16,0.04
2013-6-27,77,71,58,58,54,51,82,56,42,30.15,30.06,5,2,10,0.00
2013-6-28,75,69,62,61,56,50,83,64,49,30.12,30.00,7,3,17,0.07
2013-6-29,76,71,64,56,50,46,74,49,36,30.09,30.00,8,5,13,0.00
2013-6-30,80,72,64,54,48,40,56,44,24,30.15,30.06,5,2,11,0.00
2013-7-1,81,75,66,58,52,47,57,45,34,30.17,30.12,6,2,8,0.00
2013-7-2,85,78,68,58,54,44,59,45,31,30.15,30.09,4,1,9,0.00
2013-7-3,83,77,68,59,52,44,71,45,27,30.12,30.03,4,2,8,0.00
2013-7-4,82,72,65,64,59,53,87,65,42,30.12,30.00,4,2,10,0.45
2013-7-5,88,81,67,65,58,52,83,47,31,30.15,30.09,5,2,9,0.00
2013-7-6,89,81,74,62,56,45,61,44,22,30.17,30.09,8,3,12,0.00
2013-7-7,87,76,70,64,61,57,78,60,37,30.17,30.09,9,2,12,0.05
2013-7-8,89,76,68,65,61,57,82,62,39,30.17,30.06,9,2,12,1.53
2013-7-9,85,76,67,66,62,58,80,63,42,30.09,29.97,4,1,8,0.00
2013-7-10,85,77,68,68,64,58,84,65,44,30.00,29.88,6,2,13,0.00
2013-7-11,85,77,70,70,64,57,80,66,51,29.97,29.88,8,2,13,0.00
2013-7-12,86,79,71,67,63,58,77,58,42,30.06,29.94,5,2,9,0.00
2013-7-13,86,80,72,67,64,59,75,57,48,30.06,30.00,6,2,8,0.00
2013-7-14,86,80,71,68,64,60,75,58,43,30.03,29.97,6,2,10,0.00
2013-7-15,85,78,71,69,64,59,75,64,46,30.06,30.00,5,1,15,0.16
2013-7-16,88,82,72,64,60,56,64,49,36,30.12,30.03,6,2,10,0.00
2013-7-17,89,81,75,69,64,56,73,57,42,30.09,30.03,6,2,12,0.00
2013-7-18,85,80,73,69,67,61,88,66,56,30.09,30.03,10,2,19,0.00
2013-7-19,83,75,71,69,64,61,88,70,53,30.09,30.00,6,2,8,0.00
2013-7-20,87,80,70,65,63,60,78,58,41,30.03,29.94,5,1,9,0.00
2013-7-21,87,76,68,69,63,58,85,66,45,30.03,29.97,7,2,15,0.59
2013-7-22,83,77,69,67,63,57,80,63,51,30.00,29.94,4,1,6,0.00
2013-7-23,91,83,72,67,60,38,80,48,16,30.00,29.91,4,2,8,0.00
2013-7-24,91,83,75,67,63,55,76,52,31,30.06,29.97,6,2,11,0.00
2013-7-25,89,82,75,70,67,58,79,61,48,30.06,30.00,5,2,10,0.00
2013-7-26,91,85,78,72,66,58,69,54,43,30.06,29.97,5,1,8,0.00
2013-7-27,96,88,78,69,64,48,62,45,30,30.00,29.94,6,2,9,0.00
2013-7-28,94,86,76,66,62,53,56,44,34,30.09,29.97,6,2,9,0.00
2013-7-29,91,86,77,72,62,53,85,47,31,30.09,30.00,8,3,14,0.00
2013-7-30,89,82,75,71,59,45,84,49,22,30.03,29.94,8,3,16,0.00
2013-7-31,91,83,76,64,60,49,64,47,25,30.00,29.91,6,2,9,0.00
2013-8-1,94,84,75,63,57,49,63,43,25,30.03,29.94,5,2,8,0.00
2013-8-2,91,84,74,68,62,57,69,49,36,30.06,30.00,5,2,8,0.00
2013-8-3,95,87,78,67,61,56,53,43,30,30.09,30.03,4,2,8,0.00
2013-8-4,98,90,82,66,57,46,50,35,18,30.09,30.03,6,2,11,0.00
2013-8-5,101,90,80,58,47,33,40,24,10,30.06,29.97,4,1,7,0.00
2013-8-6,97,90,81,70,60,31,56,38,15,30.03,29.94,5,1,10,0.00
2013-8-7,98,91,81,66,48,18,41,25,7,30.00,29.94,4,1,8,0.00
2013-8-8,98,91,82,62,46,31,41,23,10,30.00,29.94,4,1,9,0.00
2013-8-9,85,77,73,66,61,45,72,59,27,29.97,29.85,8,2,12,0.00
2013-8-10,89,82,71,64,61,57,67,51,36,29.94,29.82,7,2,9,0.00
2013-8-11,90,83,75,64,61,57,58,48,37,29.97,29.91,6,1,11,0.00
2013-8-12,89,83,76,67,60,52,59,46,30,30.03,29.94,5,2,10,0.00
2013-8-13,89,82,76,65,62,54,68,52,34,30.00,29.94,6,2,8,0.00
2013-8-14,88,83,74,65,62,55,73,50,39,30.00,29.91,6,2,8,0.00
2013-8-15,90,83,74,67,62,56,79,49,41,30.06,29.97,4,2,14,0.00
2013-8-16,88,83,76,70,64,56,61,54,43,30.06,29.97,5,1,8,0.00
2013-8-17,91,83,75,61,59,54,59,45,31,30.06,29.97,6,2,11,0.00
2013-8-18,89,81,72,67,60,52,80,50,31,30.09,30.00,4,1,9,0.00
2013-8-19,91,80,72,69,64,56,89,61,31,30.06,29.97,5,1,10,0.00
2013-8-20,81,73,67,69,63,58,89,72,53,30.00,29.91,8,2,15,0.04
2013-8-21,86,79,68,62,59,57,75,53,40,30.00,29.94,7,2,8,0.00
2013-8-22,87,80,74,66,62,55,69,55,46,30.00,29.94,5,1,8,0.00
2013-8-23,88,81,73,62,59,53,62,47,39,30.03,29.94,7,2,12,0.00
2013-8-24,85,77,72,69,65,56,87,69,49,30.03,29.88,5,2,10,0.00
2013-8-25,80,73,66,69,67,62,93,82,64,29.94,29.79,11,4,20,1.02
2013-8-26,79,75,70,68,66,62,84,73,65,29.91,29.85,10,3,16,0.00
2013-8-27,77,72,68,68,65,63,92,81,67,29.88,29.82,13,1,14,0.39
2013-8-28,78,72,68,68,64,61,90,75,63,30.00,29.85,3,1,8,0.64
2013-8-29,81,76,68,65,62,59,84,65,50,30.09,29.97,4,2,9,0.00
2013-8-30,81,75,69,65,62,61,84,66,54,30.09,29.97,4,1,6,0.00
2013-8-31,82,76,69,65,64,62,83,67,54,30.06,29.97,5,2,11,0.00
2013-9-1,82,76,69,63,60,56,80,59,43,30.09,30.00,5,2,12,0.00
2013-9-2,85,77,67,63,58,48,74,54,28,30.15,30.06,4,1,8,0.00
2013-9-3,86,78,71,65,63,56,77,61,41,30.20,30.15,4,1,8,0.00
2013-9-4,88,80,72,61,57,52,68,46,31,30.20,30.09,4,2,9,0.00
2013-9-5,87,79,72,65,58,50,72,50,31,30.15,29.97,9,2,14,0.00
2013-9-6,86,79,72,67,62,59,71,57,40,30.00,29.88,6,2,9,0.00
2013-9-7,87,79,72,66,63,61,80,60,43,30.12,29.97,6,1,11,0.00
2013-9-8,86,78,72,69,66,61,91,69,46,30.17,30.09,5,2,8,0.00
2013-9-9,79,73,68,72,66,58,94,82,64,30.15,30.06,7,3,14,0.11
2013-9-10,73,69,66,64,62,60,92,80,64,30.09,29.97,7,2,12,0.02
2013-9-11,74,69,65,65,63,58,93,81,64,30.03,29.94,7,2,12,0.13
2013-9-12,71,68,63,58,55,54,74,65,56,30.00,29.91,8,3,16,0.00
2013-9-13,77,70,62,58,55,50,76,60,40,30.12,29.97,5,2,9,0.00
2013-9-14,77,70,64,59,55,51,80,59,43,30.12,30.03,5,1,9,0.00
2013-9-15,72,68,63,64,61,54,94,80,61,30.09,29.82,9,3,18,0.90
2013-9-16,73,66,44,64,59,35,96,80,61,29.85,29.73,6,2,13,0.00
2013-9-17,72,67,62,61,56,50,84,68,47,29.73,29.64,8,3,12,0.00
2013-9-18,73,67,60,59,57,54,84,71,55,29.79,29.73,7,3,19,0.00
2013-9-19,75,69,63,63,59,52,84,72,62,29.85,29.73,8,4,13,0.00
2013-9-20,81,72,63,62,59,54,82,64,45,30.03,29.82,5,1,8,0.00
2013-9-21,81,74,66,62,59,56,81,60,43,30.12,30.03,4,2,10,0.00
2013-9-22,78,71,63,58,54,47,76,55,33,30.20,30.09,6,2,12,0.00
2013-9-23,75,68,62,58,56,52,80,65,51,30.15,30.06,4,1,7,0.00
2013-9-24,79,70,62,60,58,54,83,66,43,30.09,30.03,4,1,8,0.00
2013-9-25,75,66,60,62,58,52,89,75,56,30.06,29.97,7,1,10,0.00
2013-9-26,80,73,63,63,61,57,87,67,50,30.06,29.97,3,1,6,0.00
2013-9-27,80,72,65,66,61,58,91,69,52,30.03,29.94,4,1,7,0.00
2013-9-28,79,72,65,65,62,57,81,69,52,30.00,29.88,7,2,9,0.00
2013-9-29,74,70,65,68,65,56,92,83,67,29.91,29.70,11,4,17,0.81
2013-9-30,74,67,62,67,62,56,98,83,62,29.70,29.58,7,1,14,2.65
2013-10-1,74,68,62,61,59,56,87,74,58,29.82,29.67,7,2,10,0.00
2013-10-2,77,70,65,62,60,56,88,70,52,30.06,29.85,4,2,8,0.00
2013-10-3,74,67,62,60,55,52,84,67,52,30.23,30.03,5,2,7,0.00
2013-10-4,72,67,62,57,56,53,82,67,57,30.26,30.17,4,1,5,0.00
2013-10-5,70,66,60,63,58,49,88,76,51,30.20,30.03,12,3,17,1.00
2013-10-6,74,69,64,65,63,60,89,80,70,30.06,29.97,8,1,12,0.16
2013-10-7,73,67,62,64,60,55,90,79,67,30.09,30.03,5,1,11,0.00
2013-10-8,71,64,61,60,58,56,90,80,63,30.12,30.06,4,1,11,0.28
2013-10-9,68,63,59,62,58,56,93,84,73,30.09,30.00,5,1,9,0.07
2013-10-10,66,63,60,62,59,56,94,88,77,30.03,29.82,8,2,14,0.59
2013-10-11,69,63,60,61,58,53,94,85,72,30.03,29.82,4,1,8,0.07
2013-10-12,69,66,59,65,62,50,93,87,73,30.15,29.97,9,2,15,0.00
2013-10-13,74,69,62,61,57,54,90,67,56,30.15,30.09,3,1,6,0.00
2013-10-14,78,71,64,61,56,48,73,59,46,30.15,30.09,4,1,10,0.00
2013-10-15,70,66,64,62,57,51,92,73,56,30.09,29.94,5,2,11,0.00
2013-10-16,72,67,62,66,59,54,98,76,59,29.94,29.73,8,3,13,0.15
2013-10-17,76,68,60,55,48,35,78,52,25,30.03,29.85,3,1,5,0.00
2013-10-18,74,67,60,60,58,51,89,72,54,30.09,30.00,3,1,6,0.00
2013-10-19,72,67,62,59,56,52,90,69,51,30.23,30.09,5,2,9,0.00
2013-10-20,75,70,63,61,58,52,77,68,59,30.26,30.20,5,2,10,0.00
2013-10-21,74,69,65,63,59,57,85,72,64,30.23,30.20,5,1,11,0.00
2013-10-22,76,70,64,63,60,53,87,72,54,30.20,30.12,5,2,10,0.00
2013-10-23,74,69,65,63,60,57,86,74,65,30.17,30.09,4,2,10,0.00
2013-10-24,70,67,64,62,60,58,86,79,67,30.17,30.09,8,2,10,0.02
2013-10-25,76,70,64,67,64,60,88,80,70,30.20,30.12,4,1,6,0.00
2013-10-26,75,69,64,66,63,60,92,81,69,30.23,30.17,3,1,7,0.00
2013-10-27,73,66,62,64,61,59,96,85,69,30.26,30.17,3,1,6,0.00
2013-10-28,74,68,62,64,62,60,93,83,70,30.17,30.09,4,2,9,0.00
2013-10-29,74,68,62,65,62,57,93,81,71,30.09,29.94,4,1,8,0.00
2013-10-30,71,66,61,62,60,57,93,81,66,30.06,29.94,3,1,10,0.00
2013-10-31,73,67,61,61,57,54,90,70,56,30.15,30.03,5,1,8,0.00
2013-11-1,71,66,61,58,56,54,85,72,59,30.15,30.06,4,2,9,0.00
2013-11-2,68,65,61,62,60,54,94,84,71,30.12,30.00,8,2,14,0.03
2013-11-3,68,65,62,62,60,58,94,85,76,30.06,29.94,9,4,15,0.17
2013-11-4,66,64,61,63,58,54,96,81,67,29.94,29.47,12,4,17,0.15
2013-11-5,64,59,55,62,55,52,97,87,68,29.55,29.38,8,2,16,2.45
2013-11-6,66,62,55,57,53,47,92,72,59,29.91,29.53,7,4,12,0.00
2013-11-7,68,64,59,61,59,49,91,83,66,30.12,29.88,8,3,16,0.00
2013-11-8,70,65,62,62,59,55,91,81,71,30.09,30.03,12,4,18,0.00
2013-11-9,68,63,60,63,59,56,89,86,78,30.06,29.94,9,3,13,0.00
2013-11-10,61,58,49,56,53,44,94,87,74,30.00,29.50,11,5,17,0.28
2013-11-11,53,49,45,51,46,43,99,88,75,29.70,29.38,12,5,16,0.37
2013-11-12,58,55,50,53,52,48,97,90,69,29.94,29.67,5,2,9,0.18
2013-11-13,64,60,53,55,52,49,88,75,69,29.97,29.88,5,2,10,0.00
2013-11-14,69,62,58,55,53,49,84,74,55,29.97,29.85,5,1,9,0.00
2013-11-15,60,56,53,56,52,48,96,88,76,30.00,29.79,6,1,9,0.72
2013-11-16,63,59,56,52,48,46,85,68,57,30.09,29.97,5,1,8,0.00
2013-11-17,66,60,56,54,51,46,83,73,62,30.15,30.03,6,2,11,0.00
2013-11-18,63,61,57,52,50,47,83,67,61,30.09,29.67,14,6,25,0.02
2013-11-19,60,55,51,54,49,46,93,80,69,29.76,29.38,12,5,20,2.34
2013-11-20,57,51,49,56,48,44,97,89,74,29.73,29.29,16,2,25,0.84
2013-11-21,52,49,47,47,43,40,94,80,68,29.73,29.50,9,3,19,0.90
2013-11-22,52,47,45,47,42,39,92,82,72,29.53,29.38,9,2,15,0.41
2013-11-23,48,45,43,44,41,38,93,88,80,29.58,29.38,9,2,14,1.60
2013-11-24,52,48,45,44,41,39,85,79,64,29.70,29.53,5,1,9,0.00
2013-11-25,54,45,34,45,35,23,80,68,56,29.82,29.67,13,5,20,0.00
2013-11-26,41,32,32,30,15,-100,84,65,62,29.94,29.82,17,7,22,0.00
2013-11-27,40,36,32,32,29,26,82,76,64,30.20,29.91,10,3,14,0.00
2013-11-28,46,43,38,39,34,28,83,71,61,30.23,30.15,7,2,10,0.02
2013-11-29,55,49,43,44,39,34,79,69,60,30.20,30.03,4,1,7,0.02
2013-11-30,53,50,45,40,37,34,69,61,55,30.06,29.79,5,2,8,0.00
2013-12-1,53,51,45,41,39,34,70,63,58,29.82,29.61,11,4,17,0.00
2013-12-2,64,55,50,51,47,40,85,74,59,30.12,29.70,8,3,13,0.00
2013-12-3,61,54,47,46,41,37,78,62,46,30.20,30.09,4,1,7,0.00
2013-12-4,57,52,47,47,44,40,87,76,67,30.23,30.12,4,1,8,0.00
2013-12-5,54,49,45,44,39,35,87,68,57,30.17,30.09,3,1,5,0.00
2013-12-6,52,50,45,42,40,39,87,69,63,30.09,29.91,4,1,6,0.00
2013-12-7,57,52,46,45,40,37,82,66,53,30.26,29.97,4,2,8,0.00
2013-12-8,61,54,50,46,44,42,79,71,53,30.35,30.23,4,1,10,0.00
2013-12-9,59,53,50,50,45,41,80,75,67,30.38,30.32,3,1,5,0.00
2013-12-10,56,53,47,45,42,37,76,68,57,30.47,30.35,3,1,5,0.00
2013-12-11,57,53,49,50,47,37,87,80,61,30.50,30.44,5,1,8,0.00
2013-12-12,55,50,47,46,43,39,86,79,71,30.44,30.29,4,2,6,0.00
2013-12-13,53,49,47,45,42,39,84,75,66,30.32,30.20,4,2,6,0.00
2013-12-14,54,51,46,44,43,39,80,74,63,30.35,30.23,4,1,6,0.00
2013-12-15,53,48,45,46,42,39,85,79,69,30.44,30.32,6,1,8,0.05
2013-12-16,58,51,45,49,40,28,89,67,42,30.47,30.41,4,1,6,0.00
2013-12-17,58,51,46,44,38,31,72,60,51,30.44,30.32,2,1,4,0.00
2013-12-18,56,49,44,46,40,31,80,70,57,30.35,30.20,4,1,6,0.00
2013-12-19,54,51,44,46,42,33,87,73,64,30.23,30.09,7,3,12,0.00
2013-12-20,54,53,51,50,49,43,92,88,72,30.44,30.12,8,2,15,0.36
2013-12-21,60,55,50,52,50,47,90,83,74,30.53,30.41,1,0,4,0.03
2013-12-22,56,51,49,52,47,45,91,85,77,30.50,30.35,3,0,4,0.00
2013-12-23,55,50,45,47,43,40,93,77,64,30.35,30.20,4,1,5,0.00
2013-12-24,56,51,45,47,44,37,88,79,69,30.20,30.06,8,2,17,0.00
2013-12-25,53,53,50,50,48,44,92,84,79,30.06,29.58,15,10,28,0.06
2013-12-26,55,52,47,53,49,42,96,90,83,29.58,29.35,16,8,26,1.81
2013-12-27,52,47,44,45,42,41,91,84,73,29.88,29.47,5,1,10,0.00
2013-12-28,57,52,44,48,45,40,88,78,64,30.03,29.85,6,2,12,0.00
2013-12-29,56,53,51,51,49,46,93,86,75,30.12,30.00,8,2,16,0.00
2013-12-30,51,47,45,49,46,44,98,95,87,30.15,30.03,6,2,9,0.68
2013-12-31,53,49,45,50,44,40,98,84,69,30.09,30.00,4,1,6,0.02
2014-1-1,54,48,44,45,41,37,84,77,69,30.12,30.00,1,0,3,0.00
2014-1-2,53,52,44,50,46,38,89,81,68,30.09,30.00,8,2,17,0.00